createdAt,value
2023-02-06T00:00:38.539Z,30.23
2023-02-06T00:03:10.370Z,31.10
2023-02-06T00:05:41.976Z,31.48
2023-02-06T00:08:13.493Z,32.50
2023-02-06T00:10:44.884Z,34.45
2023-02-06T00:13:16.804Z,24.80
2023-02-06T00:15:48.428Z,31.70
2023-02-06T00:18:19.888Z,30.83
2023-02-06T00:20:51.319Z,35.88
2023-02-06T00:23:23.007Z,40.03
2023-02-06T00:25:54.440Z,44.47
2023-02-06T00:28:25.840Z,25.83
2023-02-06T00:30:57.299Z,31.17
2023-02-06T00:33:28.796Z,32.25
2023-02-06T00:36:01.950Z,32.17
2023-02-06T00:38:33.550Z,33.08
2023-02-06T00:41:05.180Z,26.50
2023-02-06T00:43:36.888Z,41.53
2023-02-06T00:46:08.406Z,30.30
2023-02-06T00:48:39.833Z,38.55
2023-02-06T00:51:11.361Z,27.85
2023-02-06T00:53:42.815Z,32.60
2023-02-06T00:56:14.258Z,29.00
2023-02-06T00:58:45.711Z,31.85
2023-02-06T01:01:17.627Z,30.90
2023-02-06T01:03:49.145Z,26.30
2023-02-06T01:06:21.108Z,24.80
2023-02-06T01:08:52.746Z,29.05
2023-02-06T01:11:25.540Z,32.60
2023-02-06T01:13:57.019Z,26.38
2023-02-06T01:16:28.823Z,28.95
2023-02-06T01:19:00.303Z,34.50
2023-02-06T01:21:31.729Z,33.25
2023-02-06T01:24:03.370Z,37.65
2023-02-06T01:26:34.784Z,39.63
2023-02-06T01:29:06.262Z,35.55
2023-02-06T01:31:37.777Z,30.52
2023-02-06T01:34:09.918Z,23.83
2023-02-06T01:36:41.351Z,31.88
2023-02-06T01:39:12.832Z,26.90
2023-02-06T01:41:44.272Z,35.95
2023-02-06T01:44:18.885Z,34.58
2023-02-06T01:46:52.527Z,24.45
2023-02-06T01:49:40.296Z,27.38
2023-02-06T01:52:19.868Z,24.30
2023-02-06T01:54:59.249Z,28.10
2023-02-06T01:57:32.604Z,29.35
2023-02-06T02:00:08.176Z,26.17
2023-02-06T02:02:43.715Z,33.58
2023-02-06T02:05:17.215Z,26.55
2023-02-06T02:07:58.687Z,20.58
2023-02-06T02:10:31.135Z,30.55
2023-02-06T02:13:02.577Z,27.23
2023-02-06T02:15:58.754Z,25.52
2023-02-06T02:19:11.913Z,21.10
2023-02-06T02:22:01.659Z,25.80
2023-02-06T02:24:56.073Z,28.00
2023-02-06T02:27:44.472Z,27.02
2023-02-06T02:30:53.028Z,30.90
2023-02-06T02:33:46.025Z,31.75
2023-02-06T02:36:37.407Z,27.50
2023-02-06T02:39:53.167Z,23.87
2023-02-06T02:42:30.867Z,31.45
2023-02-06T02:45:19.426Z,31.23
2023-02-06T02:47:58.766Z,29.95
2023-02-06T02:50:31.207Z,30.05
2023-02-06T02:53:03.652Z,26.60
2023-02-06T02:55:35.529Z,18.70
2023-02-06T02:58:15.029Z,21.50
2023-02-06T03:00:51.486Z,21.77
2023-02-06T03:03:25.892Z,22.33
2023-02-06T03:06:21.849Z,22.25
2023-02-06T03:09:05.759Z,24.98
2023-02-06T03:11:45.320Z,27.50
2023-02-06T03:14:47.803Z,27.45
2023-02-06T03:17:51.402Z,27.30
2023-02-06T03:20:23.918Z,21.70
2023-02-06T03:22:57.486Z,23.80
2023-02-06T03:25:36.215Z,15.73
2023-02-06T03:28:16.073Z,14.55
2023-02-06T03:30:50.984Z,23.33
2023-02-06T03:33:28.864Z,35.42
2023-02-06T03:36:00.401Z,29.48
2023-02-06T03:38:32.486Z,31.27
2023-02-06T03:41:05.885Z,29.60
2023-02-06T03:43:37.879Z,28.38
2023-02-06T03:46:11.391Z,23.55
2023-02-06T03:48:47.570Z,21.33
2023-02-06T03:51:28.382Z,32.00
2023-02-06T03:54:02.694Z,21.23
2023-02-06T03:56:40.326Z,26.48
2023-02-06T03:59:14.142Z,22.50
2023-02-06T04:01:49.633Z,21.85
2023-02-06T04:04:24.741Z,25.85
2023-02-06T04:07:04.510Z,19.23
2023-02-06T04:09:35.960Z,22.67
2023-02-06T04:12:07.825Z,18.83
2023-02-06T04:14:39.269Z,25.15
2023-02-06T04:17:11.721Z,24.63
2023-02-06T04:19:43.235Z,32.78
2023-02-06T04:22:15.991Z,23.38
2023-02-06T04:24:47.636Z,24.58
2023-02-06T04:27:19.039Z,24.60
2023-02-06T04:29:50.448Z,23.40
2023-02-06T04:32:22.008Z,21.90
2023-02-06T04:34:53.446Z,20.73
2023-02-06T04:37:24.913Z,25.95
2023-02-06T04:39:56.333Z,16.38
2023-02-06T04:42:27.811Z,21.58
2023-02-06T04:44:59.236Z,25.42
2023-02-06T04:47:30.661Z,17.40
2023-02-06T04:50:03.122Z,17.65
2023-02-06T04:52:34.530Z,19.40
2023-02-06T04:55:06.373Z,19.92
2023-02-06T04:57:37.834Z,18.20
2023-02-06T05:00:10.019Z,23.60
2023-02-06T05:02:41.550Z,16.40
2023-02-06T05:05:13.108Z,20.40
2023-02-06T05:07:44.527Z,15.20
2023-02-06T05:10:16.063Z,26.95
2023-02-06T05:12:47.512Z,19.92
2023-02-06T05:15:19.213Z,24.48
2023-02-06T05:17:50.661Z,21.25
2023-02-06T05:20:22.112Z,25.10
2023-02-06T05:22:53.814Z,27.85
2023-02-06T05:25:25.300Z,17.42
2023-02-06T05:27:56.728Z,12.18
2023-02-06T05:30:28.448Z,26.13
2023-02-06T05:33:00.031Z,30.77
2023-02-06T05:35:31.660Z,31.75
2023-02-06T05:38:08.911Z,22.87
2023-02-06T05:40:40.436Z,22.35
2023-02-06T05:43:12.225Z,30.83
2023-02-06T05:45:43.632Z,23.65
2023-02-06T05:48:15.111Z,21.88
2023-02-06T05:50:49.412Z,25.33
2023-02-06T05:53:20.886Z,22.05
2023-02-06T05:55:52.397Z,18.38
2023-02-06T05:58:24.054Z,22.23
2023-02-06T06:00:55.521Z,19.58
2023-02-06T06:03:27.016Z,21.90
2023-02-06T06:05:58.443Z,20.40
2023-02-06T06:08:29.888Z,22.00
2023-02-06T06:11:02.164Z,24.02
2023-02-06T06:13:33.847Z,21.23
2023-02-06T06:16:05.396Z,21.33
2023-02-06T06:18:37.150Z,24.23
2023-02-06T06:21:08.554Z,26.13
2023-02-06T06:23:40.066Z,25.65
2023-02-06T06:26:11.500Z,22.38
2023-02-06T06:28:42.961Z,32.33
2023-02-06T06:31:14.656Z,29.10
2023-02-06T06:33:46.342Z,17.63
2023-02-06T06:36:17.766Z,25.38
2023-02-06T06:38:49.252Z,25.08
2023-02-06T06:41:20.834Z,25.00
2023-02-06T06:43:55.472Z,34.77
2023-02-06T06:46:26.968Z,22.10
2023-02-06T06:48:58.405Z,27.17
2023-02-06T06:51:29.848Z,22.90
2023-02-06T06:54:01.333Z,26.45
2023-02-06T06:56:32.986Z,27.67
2023-02-06T06:59:04.629Z,19.65
2023-02-06T07:01:36.098Z,23.73
2023-02-06T07:04:07.533Z,29.88
2023-02-06T07:06:38.982Z,28.13
2023-02-06T07:09:10.524Z,29.80
2023-02-06T07:11:42.972Z,26.35
2023-02-06T07:14:14.485Z,27.02
2023-02-06T07:16:46.014Z,26.15
2023-02-06T07:19:17.649Z,21.40
2023-02-06T07:21:49.037Z,27.05
2023-02-06T07:24:20.596Z,26.02
2023-02-06T07:26:52.058Z,20.63
2023-02-06T07:29:24.026Z,27.25
2023-02-06T07:31:55.541Z,23.45
2023-02-06T07:34:27.039Z,30.60
2023-02-06T07:36:58.578Z,23.05
2023-02-06T07:39:29.995Z,25.80
2023-02-06T07:42:01.427Z,23.77
2023-02-06T07:44:32.852Z,25.58
2023-02-06T07:47:04.413Z,23.08
2023-02-06T07:49:36.080Z,22.48
2023-02-06T07:52:07.573Z,24.83
2023-02-06T07:54:38.968Z,22.45
2023-02-06T07:57:10.393Z,22.35
2023-02-06T07:59:41.780Z,22.48
2023-02-06T08:02:13.262Z,26.83
2023-02-06T08:04:44.916Z,25.02
2023-02-06T08:07:17.900Z,30.35
2023-02-06T08:09:49.315Z,23.90
2023-02-06T08:12:20.763Z,24.33
2023-02-06T08:14:52.392Z,23.65
2023-02-06T08:17:23.856Z,27.27
2023-02-06T08:19:55.283Z,28.05
2023-02-06T08:22:29.141Z,29.63
2023-02-06T08:25:00.610Z,34.55
2023-02-06T08:27:32.350Z,28.60
2023-02-06T08:30:04.544Z,24.75
2023-02-06T08:32:36.211Z,25.02
2023-02-06T08:35:07.859Z,29.52
2023-02-06T08:37:39.324Z,23.80
2023-02-06T08:40:11.376Z,23.05
2023-02-06T08:42:42.791Z,17.70
2023-02-06T08:45:14.192Z,22.23
2023-02-06T08:47:45.715Z,31.20
2023-02-06T08:50:17.235Z,27.20
2023-02-06T08:52:48.694Z,21.40
2023-02-06T08:55:20.111Z,22.15
2023-02-06T08:57:56.684Z,20.02
2023-02-06T09:00:28.140Z,22.85
2023-02-06T09:02:59.616Z,27.08
2023-02-06T09:05:31.064Z,20.85
2023-02-06T09:08:02.473Z,15.95
2023-02-06T09:10:33.894Z,24.92
2023-02-06T09:13:05.319Z,27.50
2023-02-06T09:15:37.206Z,27.02
2023-02-06T09:18:09.707Z,39.40
2023-02-06T09:20:41.225Z,36.40
2023-02-06T09:23:13.255Z,35.90
2023-02-06T09:25:45.731Z,35.08
2023-02-06T09:28:17.185Z,34.30
2023-02-06T09:30:49.650Z,30.30
2023-02-06T09:33:21.169Z,28.88
2023-02-06T09:36:07.951Z,30.90
2023-02-06T09:38:44.311Z,34.78
2023-02-06T09:41:33.987Z,36.15
2023-02-06T09:44:11.080Z,31.02
2023-02-06T09:46:59.215Z,34.08
2023-02-06T09:49:41.715Z,25.27
2023-02-06T09:52:13.107Z,33.30
2023-02-06T09:54:46.343Z,39.17
2023-02-06T09:57:28.193Z,29.67
2023-02-06T10:00:03.035Z,30.63
2023-02-06T10:03:03.402Z,23.83
2023-02-06T10:05:49.365Z,24.17
2023-02-06T10:08:48.653Z,26.20
2023-02-06T10:11:40.379Z,30.55
2023-02-06T10:14:41.010Z,30.15
2023-02-06T10:17:35.095Z,28.70
2023-02-06T10:20:19.810Z,26.83
2023-02-06T10:23:15.204Z,27.13
2023-02-06T10:25:50.351Z,22.97
2023-02-06T10:28:25.869Z,26.27
2023-02-06T10:31:12.479Z,20.63
2023-02-06T10:33:54.901Z,22.52
2023-02-06T10:36:46.262Z,19.88
2023-02-06T10:39:46.933Z,21.70
2023-02-06T10:42:43.467Z,20.88
2023-02-06T10:45:27.056Z,23.07
2023-02-06T10:48:16.379Z,22.77
2023-02-06T10:51:07.536Z,24.85
2023-02-06T10:53:51.152Z,24.63
2023-02-06T10:56:27.310Z,21.58
2023-02-06T10:59:02.682Z,18.45
2023-02-06T11:01:40.972Z,20.43
2023-02-06T11:04:17.353Z,24.38
2023-02-06T11:06:48.785Z,21.67
2023-02-06T11:09:20.315Z,21.37
2023-02-06T11:11:53.453Z,21.20
2023-02-06T11:14:28.739Z,27.48
2023-02-06T11:17:01.031Z,21.88
2023-02-06T11:19:37.231Z,19.20
2023-02-06T11:22:12.737Z,29.20
2023-02-06T11:24:59.810Z,25.50
2023-02-06T11:27:33.577Z,23.83
2023-02-06T11:30:30.121Z,20.83
2023-02-06T11:33:19.171Z,16.48
2023-02-06T11:35:54.437Z,22.10
2023-02-06T11:38:29.245Z,18.95
2023-02-06T11:41:05.151Z,19.67
2023-02-06T11:43:42.844Z,15.93
2023-02-06T11:46:17.432Z,23.10
2023-02-06T11:49:02.397Z,19.17
2023-02-06T11:51:57.515Z,21.55
2023-02-06T11:54:33.384Z,18.35
2023-02-06T11:57:18.973Z,19.83
2023-02-06T11:59:53.453Z,19.40
2023-02-06T12:02:31.900Z,19.67
2023-02-06T12:05:17.922Z,21.85
2023-02-06T12:07:58.565Z,17.40
2023-02-06T12:10:38.343Z,19.48
2023-02-06T12:13:23.752Z,18.25
2023-02-06T12:15:59.469Z,17.55
2023-02-06T12:18:42.835Z,20.77
2023-02-06T12:21:21.353Z,19.58
2023-02-06T12:24:00.783Z,20.50
2023-02-06T12:26:35.255Z,20.73
2023-02-06T12:29:19.861Z,15.23
2023-02-06T12:32:03.438Z,17.30
2023-02-06T12:34:49.670Z,20.83
2023-02-06T12:37:34.052Z,16.35
2023-02-06T12:40:46.503Z,17.37
2023-02-06T12:43:19.284Z,15.80
2023-02-06T12:46:00.823Z,15.30
2023-02-06T12:49:01.808Z,18.63
2023-02-06T12:51:45.456Z,17.83
2023-02-06T12:54:26.861Z,20.37
2023-02-06T12:57:15.911Z,18.83
2023-02-06T13:00:16.864Z,19.48
2023-02-06T13:03:22.243Z,20.25
2023-02-06T13:05:56.019Z,20.48
2023-02-06T13:08:36.477Z,15.27
2023-02-06T13:11:15.425Z,19.73
2023-02-06T13:13:48.046Z,18.20
2023-02-06T13:16:19.578Z,15.43
2023-02-06T13:18:52.748Z,18.35
2023-02-06T13:21:28.232Z,18.75
2023-02-06T13:24:02.423Z,17.90
2023-02-06T13:26:45.853Z,18.58
2023-02-06T13:29:24.658Z,17.48
2023-02-06T13:32:11.396Z,15.68
2023-02-06T13:34:50.924Z,19.23
2023-02-06T13:37:31.380Z,15.15
2023-02-06T13:40:27.389Z,17.40
2023-02-06T13:43:07.865Z,18.65
2023-02-06T13:45:59.321Z,16.38
2023-02-06T13:48:39.787Z,16.25
2023-02-06T13:51:33.119Z,16.95
2023-02-06T13:54:30.691Z,18.37
2023-02-06T13:57:20.221Z,14.70
2023-02-06T14:00:17.123Z,18.70
2023-02-06T14:02:53.314Z,19.60
2023-02-06T14:05:43.915Z,16.33
2023-02-06T14:08:56.833Z,15.73
2023-02-06T14:12:00.903Z,18.17
2023-02-06T14:15:28.223Z,17.45
2023-02-06T14:18:12.169Z,12.63
2023-02-06T14:21:14.428Z,14.27
2023-02-06T14:24:01.630Z,16.73
2023-02-06T14:27:05.537Z,16.00
2023-02-06T14:29:40.043Z,14.30
2023-02-06T14:32:45.223Z,14.85
2023-02-06T14:35:41.240Z,20.33
2023-02-06T14:38:22.142Z,17.85
2023-02-06T14:40:56.243Z,17.27
2023-02-06T14:43:35.155Z,15.88
2023-02-06T14:46:13.785Z,14.23
2023-02-06T14:48:50.796Z,15.23
2023-02-06T14:51:29.414Z,15.60
2023-02-06T14:54:06.379Z,17.30
2023-02-06T14:56:39.385Z,14.63
2023-02-06T14:59:13.642Z,14.85
2023-02-06T15:01:48.416Z,13.50
2023-02-06T15:04:21.958Z,15.73
2023-02-06T15:07:02.089Z,15.60
2023-02-06T15:09:40.932Z,15.30
2023-02-06T15:12:20.924Z,16.25
2023-02-06T15:14:54.932Z,16.30
2023-02-06T15:17:26.577Z,17.90
2023-02-06T15:20:15.169Z,15.73
2023-02-06T15:22:46.746Z,15.75
2023-02-06T15:25:37.157Z,16.50
2023-02-06T15:28:22.501Z,19.48
2023-02-06T15:30:55.840Z,21.40
2023-02-06T15:33:31.075Z,20.20
2023-02-06T15:36:04.066Z,22.30
2023-02-06T15:38:35.666Z,21.87
2023-02-06T15:41:08.435Z,18.23
2023-02-06T15:43:41.540Z,20.08
2023-02-06T15:46:14.096Z,21.52
2023-02-06T15:48:51.001Z,19.75
2023-02-06T15:51:27.705Z,17.15
2023-02-06T15:54:23.338Z,14.88
2023-02-06T15:57:04.812Z,15.90
2023-02-06T15:59:39.909Z,18.38
2023-02-06T16:02:26.185Z,19.00
2023-02-06T16:04:57.985Z,16.17
2023-02-06T16:07:32.370Z,20.55
2023-02-06T16:10:26.424Z,17.65
2023-02-06T16:13:00.239Z,22.50
2023-02-06T16:15:34.008Z,23.40
2023-02-06T16:18:25.059Z,20.38
2023-02-06T16:21:17.958Z,24.77
2023-02-06T16:23:58.486Z,18.93
2023-02-06T16:26:32.207Z,25.58
2023-02-06T16:29:12.932Z,15.75
2023-02-06T16:31:44.730Z,18.02
2023-02-06T16:34:29.556Z,17.30
2023-02-06T16:37:01.018Z,19.85
2023-02-06T16:39:32.416Z,22.42
2023-02-06T16:42:04.038Z,17.70
2023-02-06T16:44:44.604Z,17.45
2023-02-06T16:47:19.499Z,18.63
2023-02-06T16:49:51.098Z,13.45
2023-02-06T16:52:26.510Z,14.73
2023-02-06T16:54:59.054Z,15.20
2023-02-06T16:57:35.796Z,16.75
2023-02-06T17:00:26.832Z,16.40
2023-02-06T17:02:58.650Z,13.80
2023-02-06T17:05:30.284Z,16.65
2023-02-06T17:08:02.011Z,16.20
2023-02-06T17:10:33.491Z,18.00
2023-02-06T17:13:04.956Z,15.90
2023-02-06T17:15:36.720Z,16.85
2023-02-06T17:18:12.638Z,17.08
2023-02-06T17:20:47.485Z,13.40
2023-02-06T17:23:20.026Z,14.43
2023-02-06T17:25:51.521Z,17.92
2023-02-06T17:28:23.005Z,16.42
2023-02-06T17:30:54.602Z,14.02
2023-02-06T17:33:26.111Z,16.27
2023-02-06T17:35:57.729Z,16.08
2023-02-06T17:38:29.175Z,16.85
2023-02-06T17:41:00.640Z,14.88
2023-02-06T17:43:32.138Z,21.87
2023-02-06T17:46:05.135Z,12.90
2023-02-06T17:48:36.882Z,18.58
2023-02-06T17:51:08.785Z,21.23
2023-02-06T17:53:40.472Z,12.65
2023-02-06T17:56:13.171Z,15.70
2023-02-06T17:58:44.706Z,13.18
2023-02-06T18:01:19.715Z,14.27
2023-02-06T18:03:51.584Z,13.70
2023-02-06T18:06:23.509Z,17.23
2023-02-06T18:08:54.968Z,17.48
2023-02-06T18:11:26.442Z,15.85
2023-02-06T18:13:58.322Z,20.40
2023-02-06T18:16:30.341Z,22.65
2023-02-06T18:19:02.276Z,17.60
2023-02-06T18:21:33.715Z,14.90
2023-02-06T18:24:05.887Z,22.80
2023-02-06T18:26:37.329Z,16.08
2023-02-06T18:29:09.036Z,18.13
2023-02-06T18:31:41.170Z,15.98
2023-02-06T18:34:12.589Z,18.88
2023-02-06T18:36:44.036Z,17.77
2023-02-06T18:39:15.765Z,20.02
2023-02-06T18:41:47.265Z,20.48
2023-02-06T18:44:18.737Z,17.83
2023-02-06T18:46:50.674Z,15.40
2023-02-06T18:49:22.163Z,21.13
2023-02-06T18:51:53.623Z,24.00
2023-02-06T18:54:25.060Z,20.50
2023-02-06T18:56:56.448Z,19.53
2023-02-06T18:59:28.279Z,16.20
2023-02-06T19:01:59.791Z,16.08
2023-02-06T19:04:31.259Z,17.55
2023-02-06T19:07:02.861Z,15.77
2023-02-06T19:09:34.556Z,15.20
2023-02-06T19:12:06.275Z,20.70
2023-02-06T19:14:38.727Z,18.85
2023-02-06T19:17:10.169Z,20.77
2023-02-06T19:19:41.625Z,15.07
2023-02-06T19:22:13.274Z,19.00
2023-02-06T19:24:44.839Z,20.73
2023-02-06T19:27:16.715Z,19.25
2023-02-06T19:29:48.622Z,26.73
2023-02-06T19:32:20.165Z,19.45
2023-02-06T19:34:51.560Z,13.75
2023-02-06T19:37:23.027Z,26.40
2023-02-06T19:39:54.467Z,18.30
2023-02-06T19:42:25.981Z,20.92
2023-02-06T19:44:57.445Z,18.23
2023-02-06T19:47:28.929Z,21.48
2023-02-06T19:50:00.315Z,18.20
2023-02-06T19:52:31.774Z,17.95
2023-02-06T19:55:04.220Z,15.43
2023-02-06T19:57:39.180Z,17.40
2023-02-06T20:00:11.510Z,18.58
2023-02-06T20:02:42.925Z,18.53
2023-02-06T20:05:14.551Z,20.95
2023-02-06T20:07:45.992Z,18.98
2023-02-06T20:10:17.562Z,19.38
2023-02-06T20:12:49.104Z,19.48
2023-02-06T20:15:20.538Z,16.10
2023-02-06T20:17:54.132Z,18.73
2023-02-06T20:20:25.536Z,17.90
2023-02-06T20:22:57.024Z,19.13
2023-02-06T20:25:28.870Z,15.80
2023-02-06T20:28:00.373Z,20.67
2023-02-06T20:30:32.311Z,20.50
2023-02-06T20:33:03.917Z,19.65
2023-02-06T20:35:39.562Z,25.85
2023-02-06T20:38:11.083Z,19.17
2023-02-06T20:40:49.801Z,23.25
2023-02-06T20:43:21.250Z,21.38
2023-02-06T20:45:52.680Z,20.70
2023-02-06T20:48:24.558Z,17.73
2023-02-06T20:50:57.646Z,19.30
2023-02-06T20:53:29.569Z,20.73
2023-02-06T20:56:00.966Z,16.33
2023-02-06T20:58:32.390Z,18.43
2023-02-06T21:01:15.180Z,18.77
2023-02-06T21:03:46.878Z,21.42
2023-02-06T21:06:18.492Z,18.17
2023-02-06T21:08:50.506Z,21.75
2023-02-06T21:11:22.295Z,21.53
2023-02-06T21:13:53.746Z,19.48
2023-02-06T21:16:26.604Z,29.58
2023-02-06T21:18:59.343Z,16.95
2023-02-06T21:21:30.863Z,17.23
2023-02-06T21:24:02.286Z,19.58
2023-02-06T21:26:33.816Z,17.35
2023-02-06T21:29:06.174Z,19.63
2023-02-06T21:31:38.832Z,14.50
2023-02-06T21:34:20.073Z,20.17
2023-02-06T21:36:51.548Z,17.08
2023-02-06T21:39:24.837Z,17.17
2023-02-06T21:41:56.327Z,18.23
2023-02-06T21:44:28.070Z,15.85
2023-02-06T21:46:59.890Z,22.10
2023-02-06T21:49:31.341Z,16.42
2023-02-06T21:52:02.825Z,18.50
2023-02-06T21:54:34.298Z,23.10
2023-02-06T21:57:05.736Z,18.55
2023-02-06T21:59:37.289Z,15.70
2023-02-06T22:02:10.369Z,18.20
2023-02-06T22:04:41.798Z,18.02
2023-02-06T22:07:13.227Z,17.13
2023-02-06T22:09:44.697Z,19.38
2023-02-06T22:12:16.195Z,22.70
2023-02-06T22:14:47.658Z,25.70
2023-02-06T22:17:19.138Z,23.65
2023-02-06T22:19:50.664Z,20.20
2023-02-06T22:22:22.190Z,24.98
2023-02-06T22:24:53.634Z,18.02
2023-02-06T22:27:25.094Z,17.88
2023-02-06T22:29:56.476Z,23.73
2023-02-06T22:32:27.935Z,18.30
2023-02-06T22:35:00.056Z,16.17
2023-02-06T22:37:32.620Z,18.92
2023-02-06T22:40:04.406Z,24.48
2023-02-06T22:42:35.865Z,20.55
2023-02-06T22:45:07.550Z,20.55
2023-02-06T22:47:38.961Z,21.70
2023-02-06T22:50:10.393Z,16.47
2023-02-06T22:52:41.771Z,18.10
2023-02-06T22:55:13.228Z,16.57
2023-02-06T22:57:44.644Z,14.77
2023-02-06T23:00:16.441Z,20.35
2023-02-06T23:02:47.896Z,15.60
2023-02-06T23:05:19.376Z,19.48
2023-02-06T23:07:50.839Z,17.77
2023-02-06T23:10:22.310Z,18.23
2023-02-06T23:12:53.746Z,19.45
2023-02-06T23:15:25.176Z,14.87
2023-02-06T23:17:56.580Z,18.80
2023-02-06T23:20:28.017Z,24.77
2023-02-06T23:22:59.409Z,16.70
2023-02-06T23:25:31.383Z,13.53
2023-02-06T23:28:02.894Z,16.08
2023-02-06T23:30:34.360Z,15.70
2023-02-06T23:33:06.073Z,15.18
2023-02-06T23:35:39.387Z,14.32
2023-02-06T23:38:11.452Z,16.90
2023-02-06T23:40:42.920Z,14.43
2023-02-06T23:43:14.347Z,16.27
2023-02-06T23:45:46.118Z,19.70
2023-02-06T23:48:17.611Z,15.52
2023-02-06T23:50:49.072Z,16.40
2023-02-06T23:53:20.520Z,17.03
2023-02-06T23:55:51.977Z,15.82
2023-02-06T23:58:23.507Z,15.05
